createdAt,value
2019-01-05T00:02:38.255Z,62.70
2019-01-05T00:07:02.695Z,57.70
2019-01-05T00:11:26.909Z,59.00
2019-01-05T00:20:29.270Z,53.13
2019-01-05T00:24:53.443Z,60.13
2019-01-05T00:29:43.941Z,58.47
2019-01-05T00:39:05.716Z,58.83
2019-01-05T02:42:54.761Z,44.27
2019-01-05T02:57:19.382Z,47.17
2019-01-05T03:02:21.566Z,50.13
2019-01-05T03:07:23.872Z,42.17
2019-01-05T03:12:26.108Z,42.33
2019-01-05T03:17:24.431Z,41.60
2019-01-05T03:22:26.606Z,44.10
2019-01-05T03:27:16.935Z,41.37
2019-01-05T03:37:01.872Z,48.40
2019-01-05T03:42:04.036Z,44.10
2019-01-05T03:47:09.011Z,45.60
2019-01-05T03:52:00.194Z,40.50
2019-01-05T03:56:57.184Z,35.20
2019-01-05T04:12:12.537Z,43.80
2019-01-05T04:17:14.718Z,41.07
2019-01-05T04:22:16.937Z,43.57
2019-01-05T04:27:19.109Z,42.20
2019-01-05T04:32:21.332Z,47.07
2019-01-05T04:37:24.575Z,53.10
2019-01-05T04:42:26.775Z,47.87
2019-01-05T04:47:28.929Z,48.43
2019-01-05T04:52:31.079Z,43.50
2019-01-05T04:57:33.311Z,43.90
2019-01-05T05:02:25.314Z,51.37
2019-01-05T05:12:22.229Z,37.40
2019-01-05T05:17:24.636Z,27.27
2019-01-05T05:22:26.955Z,25.87
2019-01-05T05:27:26.289Z,23.17
2019-01-05T05:32:31.247Z,25.63
2019-01-05T05:37:34.502Z,22.43
2019-01-05T05:43:00.367Z,23.47
2019-01-05T05:48:05.572Z,23.90
2019-01-05T05:53:10.570Z,24.07
2019-01-05T05:58:12.781Z,20.53
2019-01-05T06:03:22.727Z,21.13
2019-01-05T06:08:26.631Z,21.80
2019-01-05T06:13:28.837Z,21.17
2019-01-05T06:18:31.956Z,19.20
2019-01-05T06:23:32.518Z,19.20
2019-01-05T06:28:48.034Z,18.47
2019-01-05T06:33:58.361Z,16.30
2019-01-05T06:38:59.449Z,12.40
2019-01-05T06:43:53.436Z,14.10
2019-01-05T06:48:55.865Z,15.07
2019-01-05T06:53:58.069Z,13.70
2019-01-05T06:58:52.812Z,11.37
2019-01-05T07:03:55.221Z,10.37
2019-01-05T07:08:57.448Z,9.27
2019-01-05T07:13:46.307Z,10.40
2019-01-05T07:18:48.528Z,10.17
2019-01-05T07:28:57.483Z,9.10
2019-01-05T07:33:59.751Z,9.87
2019-01-05T07:38:54.585Z,9.80
2019-01-05T07:43:56.754Z,9.03
2019-01-05T07:53:49.732Z,8.87
2019-01-05T07:58:46.482Z,8.30
2019-01-05T08:03:48.643Z,8.67
2019-01-05T08:08:50.866Z,9.97
2019-01-05T08:18:50.152Z,9.90
2019-01-05T08:23:52.458Z,9.03
2019-01-05T08:28:55.633Z,8.23
2019-01-05T08:33:57.805Z,7.90
2019-01-05T08:38:59.978Z,6.60
2019-01-05T08:44:02.148Z,6.53
2019-01-05T08:48:56.673Z,6.17
2019-01-05T08:53:58.853Z,7.13
2019-01-05T08:59:01.036Z,7.47
2019-01-05T09:09:16.551Z,6.50
2019-01-05T09:14:07.921Z,6.30
2019-01-05T09:19:10.105Z,5.23
2019-01-05T09:23:56.036Z,6.10
2019-01-05T09:28:58.180Z,6.57
2019-01-05T09:34:00.594Z,7.27
2019-01-05T09:39:02.760Z,6.57
2019-01-05T09:43:57.051Z,6.20
2019-01-05T09:48:59.466Z,7.17
2019-01-05T09:54:01.671Z,6.87
2019-01-05T09:59:03.853Z,7.30
2019-01-05T10:03:49.011Z,6.57
2019-01-05T10:08:51.201Z,6.70
2019-01-05T10:13:36.586Z,6.47
2019-01-05T10:24:02.616Z,6.57
2019-01-05T10:38:53.491Z,6.63
2019-01-05T10:44:06.547Z,5.90
2019-01-05T10:49:08.728Z,5.97
2019-01-05T10:54:10.946Z,7.20
2019-01-05T11:03:55.482Z,6.50
2019-01-05T11:08:57.610Z,6.77
2019-01-05T11:13:43.748Z,6.30
2019-01-05T11:18:45.943Z,6.03
2019-01-05T11:23:48.110Z,6.93
2019-01-05T11:28:50.258Z,7.50
2019-01-05T11:33:47.059Z,5.90
2019-01-05T11:43:45.237Z,5.73
2019-01-05T11:48:50.433Z,6.40
2019-01-05T11:53:52.594Z,5.63
2019-01-05T11:58:54.830Z,5.60
2019-01-05T12:03:57.025Z,5.90
2019-01-05T12:08:49.940Z,5.33
2019-01-05T12:13:47.016Z,6.10
2019-01-05T12:18:37.540Z,5.63
2019-01-05T12:23:32.091Z,6.43
2019-01-05T12:28:20.727Z,6.23
2019-01-05T12:33:23.898Z,7.10
2019-01-05T12:38:26.092Z,5.73
2019-01-05T12:43:28.281Z,7.77
2019-01-05T12:48:33.540Z,6.03
2019-01-05T12:53:16.580Z,6.20
2019-01-05T12:58:15.592Z,6.53
2019-01-05T13:03:17.755Z,6.70
2019-01-05T13:08:19.985Z,7.10
2019-01-05T13:13:10.875Z,6.37
2019-01-05T13:18:09.317Z,7.07
2019-01-05T13:22:59.414Z,6.70
2019-01-05T13:28:04.542Z,5.93
2019-01-05T13:33:06.710Z,5.50
2019-01-05T13:38:08.890Z,5.63
2019-01-05T13:43:11.096Z,5.20
2019-01-05T13:48:13.264Z,5.73
2019-01-05T13:53:15.424Z,5.30
2019-01-05T13:57:39.556Z,3.97
2019-01-05T14:02:03.567Z,4.43
2019-01-05T14:06:27.595Z,3.93
2019-01-05T14:10:52.025Z,4.03
2019-01-05T14:15:16.096Z,3.73
2019-01-05T14:19:40.059Z,2.83
2019-01-05T14:24:04.159Z,3.50
2019-01-05T14:28:28.281Z,3.53
2019-01-05T14:32:52.377Z,4.20
2019-01-05T14:37:16.477Z,4.20
2019-01-05T14:41:32.184Z,4.83
2019-01-05T14:45:56.158Z,5.43
2019-01-05T14:50:20.183Z,5.47
2019-01-05T14:54:44.163Z,5.50
2019-01-05T14:59:08.264Z,6.67
2019-01-05T15:03:32.342Z,5.90
2019-01-05T15:07:56.382Z,6.93
2019-01-05T15:12:20.525Z,6.50
2019-01-05T15:16:45.062Z,6.70
2019-01-05T15:21:09.094Z,7.13
2019-01-05T15:39:10.015Z,9.50
2019-01-05T15:43:46.588Z,10.00
2019-01-05T15:52:47.732Z,8.10
2019-01-05T16:01:46.909Z,6.67
2019-01-05T16:06:10.967Z,6.73
2019-01-05T16:10:55.676Z,6.00
2019-01-05T16:15:19.718Z,5.93
2019-01-05T16:19:43.726Z,6.33
2019-01-05T16:24:07.789Z,6.57
2019-01-05T16:28:31.737Z,7.30
2019-01-05T16:32:55.878Z,6.47
2019-01-05T16:51:03.138Z,6.30
2019-01-05T16:55:27.230Z,6.40
2019-01-05T16:59:47.577Z,6.67
2019-01-05T17:04:13.349Z,6.17
2019-01-05T17:08:37.671Z,8.27
2019-01-05T17:13:01.680Z,7.27
2019-01-05T17:17:25.925Z,6.60
2019-01-05T17:21:50.025Z,5.80
2019-01-05T17:26:07.754Z,6.40
2019-01-05T17:30:32.124Z,6.53
2019-01-05T17:34:57.401Z,6.37
2019-01-05T17:39:21.650Z,7.50
2019-01-05T17:48:20.995Z,7.77
2019-01-05T17:57:07.780Z,8.00
2019-01-05T18:15:05.463Z,11.60
2019-01-05T18:19:29.749Z,11.87
2019-01-05T18:55:13.056Z,17.13
2019-01-05T18:59:37.070Z,17.57
2019-01-05T19:09:04.204Z,17.20
2019-01-05T19:13:28.221Z,16.87
2019-01-05T19:17:49.385Z,16.27
2019-01-05T19:22:13.424Z,16.03
2019-01-05T19:26:37.473Z,14.60
2019-01-05T19:31:02.313Z,13.97
2019-01-05T19:35:25.138Z,14.70
2019-01-05T19:39:49.101Z,15.43
2019-01-05T19:44:13.190Z,14.63
2019-01-05T19:48:37.235Z,12.50
2019-01-05T19:53:01.329Z,14.07
2019-01-05T19:57:25.427Z,14.13
2019-01-05T20:01:54.384Z,13.73
2019-01-05T20:11:07.542Z,13.57
2019-01-05T20:15:27.109Z,13.90
2019-01-05T20:25:11.333Z,16.03
2019-01-05T20:29:35.797Z,16.30
2019-01-05T20:33:58.766Z,15.00
2019-01-05T20:38:41.011Z,15.37
2019-01-05T20:43:05.773Z,13.30
2019-01-05T20:47:30.441Z,13.70
2019-01-05T20:51:54.595Z,13.57
2019-01-05T21:01:24.531Z,13.73
2019-01-05T21:05:49.949Z,12.97
2019-01-05T21:29:45.817Z,10.40
2019-01-05T21:34:14.101Z,10.33
2019-01-05T21:38:36.965Z,9.80
2019-01-05T21:43:01.038Z,10.87
2019-01-05T21:47:36.036Z,11.10
2019-01-05T21:52:03.002Z,12.07
2019-01-05T21:56:18.427Z,12.73
2019-01-05T22:00:47.231Z,13.80
2019-01-05T22:05:10.241Z,12.70
2019-01-05T22:09:32.622Z,14.20
2019-01-05T22:14:05.631Z,13.57
2019-01-05T22:18:31.800Z,13.97
2019-01-05T22:22:54.422Z,13.33
2019-01-05T22:27:22.732Z,11.57
2019-01-05T22:31:45.468Z,12.78
2019-01-05T22:36:14.625Z,10.47
2019-01-05T22:40:37.475Z,11.13
2019-01-05T22:45:00.393Z,9.57
2019-01-05T22:49:22.736Z,9.73
2019-01-05T22:53:41.190Z,9.67
2019-01-05T22:58:08.222Z,9.67
2019-01-05T23:02:38.135Z,10.63
2019-01-05T23:07:11.048Z,10.83
2019-01-05T23:11:33.392Z,9.33
2019-01-05T23:16:12.636Z,8.27
2019-01-05T23:20:35.385Z,9.13
2019-01-05T23:24:52.793Z,10.80
2019-01-05T23:29:19.958Z,11.03
2019-01-05T23:33:56.344Z,10.07
2019-01-05T23:38:18.673Z,9.70
2019-01-05T23:42:47.184Z,9.40
2019-01-05T23:47:07.225Z,8.70
2019-01-05T23:51:43.398Z,9.00
2019-01-05T23:56:07.031Z,9.87
